createdAt,value
2018-10-18T00:00:11.523Z,99.90
2018-10-18T00:00:45.181Z,99.90
2018-10-18T00:01:18.871Z,99.90
2018-10-18T00:01:52.564Z,99.90
2018-10-18T00:02:26.181Z,99.90
2018-10-18T00:02:59.829Z,99.90
2018-10-18T00:03:33.756Z,99.90
2018-10-18T00:04:07.348Z,99.90
2018-10-18T00:04:40.983Z,99.90
2018-10-18T00:05:14.631Z,99.90
2018-10-18T00:05:48.281Z,99.90
2018-10-18T00:06:21.919Z,99.90
2018-10-18T00:06:55.581Z,99.90
2018-10-18T00:07:29.237Z,99.90
2018-10-18T00:08:02.970Z,99.90
2018-10-18T00:08:36.605Z,99.90
2018-10-18T00:09:11.161Z,99.90
2018-10-18T00:09:44.965Z,99.90
2018-10-18T00:10:18.739Z,99.90
2018-10-18T00:10:52.374Z,99.90
2018-10-18T00:11:26.037Z,99.90
2018-10-18T00:11:59.743Z,99.90
2018-10-18T00:12:33.315Z,99.90
2018-10-18T00:13:06.996Z,99.90
2018-10-18T00:13:40.655Z,99.90
2018-10-18T00:14:14.403Z,99.90
2018-10-18T00:14:48.095Z,99.90
2018-10-18T00:15:21.747Z,99.90
2018-10-18T00:15:55.382Z,99.90
2018-10-18T00:16:29.017Z,99.90
2018-10-18T00:17:02.729Z,99.90
2018-10-18T00:17:42.051Z,99.90
2018-10-18T00:18:15.762Z,99.90
2018-10-18T00:18:49.385Z,99.90
2018-10-18T00:19:23.031Z,99.90
2018-10-18T00:19:56.833Z,99.90
2018-10-18T00:20:30.593Z,99.90
2018-10-18T00:21:04.553Z,99.90
2018-10-18T00:21:38.219Z,99.90
2018-10-18T00:22:11.981Z,99.90
2018-10-18T00:22:46.070Z,99.90
2018-10-18T00:23:19.689Z,99.90
2018-10-18T00:23:53.336Z,99.90
2018-10-18T00:24:26.978Z,99.90
2018-10-18T00:25:00.641Z,99.90
2018-10-18T00:25:34.289Z,99.90
2018-10-18T00:26:07.895Z,99.90
2018-10-18T00:26:41.594Z,99.90
2018-10-18T00:27:15.221Z,99.90
2018-10-18T00:27:48.874Z,99.90
2018-10-18T00:28:22.565Z,99.90
2018-10-18T00:28:56.209Z,99.90
2018-10-18T00:29:29.873Z,99.90
2018-10-18T00:30:04.309Z,99.90
2018-10-18T00:30:37.919Z,99.90
2018-10-18T00:31:11.617Z,99.90
2018-10-18T00:31:45.206Z,99.90
2018-10-18T00:32:18.841Z,99.90
2018-10-18T00:32:52.488Z,99.90
2018-10-18T00:33:26.149Z,99.90
2018-10-18T00:33:59.819Z,99.90
2018-10-18T00:34:33.499Z,99.90
2018-10-18T00:35:07.228Z,99.90
2018-10-18T00:35:40.882Z,99.90
2018-10-18T00:36:14.832Z,99.90
2018-10-18T00:36:48.414Z,99.90
2018-10-18T00:37:22.021Z,99.90
2018-10-18T00:37:55.695Z,99.90
2018-10-18T00:38:29.335Z,99.90
2018-10-18T00:39:04.148Z,99.90
2018-10-18T00:39:37.813Z,99.90
2018-10-18T00:40:12.229Z,99.90
2018-10-18T00:40:45.911Z,99.90
2018-10-18T00:41:19.575Z,99.90
2018-10-18T00:41:53.265Z,99.90
2018-10-18T00:42:26.879Z,99.90
2018-10-18T00:43:00.521Z,99.90
2018-10-18T00:43:34.132Z,99.90
2018-10-18T00:44:08.231Z,99.90
2018-10-18T00:44:41.824Z,99.90
2018-10-18T00:45:15.565Z,99.90
2018-10-18T00:45:49.209Z,99.90
2018-10-18T00:46:22.860Z,99.90
2018-10-18T00:46:56.489Z,99.90
2018-10-18T00:47:30.175Z,99.90
2018-10-18T00:48:03.935Z,99.90
2018-10-18T00:48:37.528Z,99.90
2018-10-18T00:49:11.181Z,99.90
2018-10-18T00:49:44.824Z,99.90
2018-10-18T00:50:18.546Z,99.90
2018-10-18T00:50:52.131Z,99.90
2018-10-18T00:51:25.730Z,99.90
2018-10-18T00:51:59.377Z,99.90
2018-10-18T00:52:33.063Z,99.90
2018-10-18T00:53:06.751Z,99.90
2018-10-18T00:53:40.397Z,99.90
2018-10-18T00:54:14.116Z,99.90
2018-10-18T00:54:47.745Z,99.90
2018-10-18T00:55:21.432Z,99.90
2018-10-18T00:55:55.154Z,99.90
2018-10-18T00:56:28.915Z,99.90
2018-10-18T00:57:02.616Z,99.90
2018-10-18T00:57:36.234Z,99.90
2018-10-18T00:58:09.876Z,99.90
2018-10-18T00:58:43.515Z,99.90
2018-10-18T00:59:17.177Z,99.90
2018-10-18T00:59:50.832Z,99.90
2018-10-18T01:00:24.511Z,99.90
2018-10-18T01:00:58.175Z,99.90
2018-10-18T01:01:31.820Z,99.90
2018-10-18T01:02:05.774Z,99.90
2018-10-18T01:02:39.405Z,99.90
2018-10-18T01:03:13.041Z,99.90
2018-10-18T01:03:46.678Z,99.90
2018-10-18T01:04:20.306Z,99.90
2018-10-18T01:04:53.938Z,99.90
2018-10-18T01:05:27.622Z,99.90
2018-10-18T01:06:01.356Z,99.90
2018-10-18T01:06:34.947Z,99.90
2018-10-18T01:07:08.682Z,99.90
2018-10-18T01:07:42.400Z,99.90
2018-10-18T01:08:16.220Z,99.90
2018-10-18T01:08:49.808Z,99.90
2018-10-18T01:09:23.455Z,99.90
2018-10-18T01:09:57.126Z,99.50
2018-10-18T01:10:30.764Z,98.70
2018-10-18T01:11:04.504Z,98.60
2018-10-18T01:11:38.188Z,98.90
2018-10-18T01:12:12.066Z,99.40
2018-10-18T01:12:45.825Z,99.10
2018-10-18T01:13:19.365Z,98.90
2018-10-18T01:13:52.983Z,99.50
2018-10-18T01:14:26.650Z,99.10
2018-10-18T01:15:00.373Z,99.40
2018-10-18T01:15:34.048Z,99.20
2018-10-18T01:16:07.694Z,99.10
2018-10-18T01:16:41.389Z,98.70
2018-10-18T01:17:15.029Z,98.70
2018-10-18T01:17:48.716Z,98.40
2018-10-18T01:18:22.374Z,99.00
2018-10-18T01:18:56.005Z,98.70
2018-10-18T01:19:31.360Z,98.40
2018-10-18T01:20:05.788Z,99.00
2018-10-18T01:20:39.396Z,98.60
2018-10-18T01:21:13.033Z,97.50
2018-10-18T01:21:46.659Z,97.40
2018-10-18T01:22:20.371Z,97.50
2018-10-18T01:22:54.006Z,97.40
2018-10-18T01:23:27.659Z,97.00
2018-10-18T01:24:01.354Z,96.70
2018-10-18T01:24:35.798Z,96.60
2018-10-18T01:25:09.437Z,96.70
2018-10-18T01:25:43.122Z,96.50
2018-10-18T01:26:16.884Z,96.40
2018-10-18T01:26:50.509Z,95.70
2018-10-18T01:27:24.144Z,95.70
2018-10-18T01:27:57.798Z,95.80
2018-10-18T01:28:31.449Z,95.20
2018-10-18T01:29:05.332Z,95.50
2018-10-18T01:29:38.966Z,95.40
2018-10-18T01:30:12.735Z,94.80
2018-10-18T01:30:46.369Z,94.50
2018-10-18T01:31:20.087Z,94.30
2018-10-18T01:31:53.902Z,94.00
2018-10-18T01:32:27.522Z,92.90
2018-10-18T01:33:01.154Z,92.10
2018-10-18T01:33:34.830Z,91.40
2018-10-18T01:34:08.460Z,90.80
2018-10-18T01:34:42.080Z,90.00
2018-10-18T01:35:15.740Z,89.10
2018-10-18T01:35:49.397Z,88.20
2018-10-18T01:36:23.245Z,87.70
2018-10-18T01:36:56.924Z,86.90
2018-10-18T01:37:30.532Z,86.20
2018-10-18T01:38:04.314Z,84.80
2018-10-18T01:38:37.978Z,84.90
2018-10-18T01:39:11.623Z,85.10
2018-10-18T01:39:45.262Z,84.90
2018-10-18T01:40:18.958Z,84.50
2018-10-18T01:40:52.618Z,83.60
2018-10-18T01:41:26.250Z,83.00
2018-10-18T01:41:59.905Z,81.90
2018-10-18T01:42:33.540Z,81.30
2018-10-18T01:43:07.230Z,81.10
2018-10-18T01:43:40.931Z,79.90
2018-10-18T01:44:14.701Z,80.00
2018-10-18T01:44:48.294Z,79.00
2018-10-18T01:45:21.922Z,79.30
2018-10-18T01:45:55.560Z,79.50
2018-10-18T01:46:29.269Z,79.10
2018-10-18T01:47:02.952Z,77.60
2018-10-18T01:47:36.588Z,77.40
2018-10-18T01:48:10.285Z,76.80
2018-10-18T01:48:43.902Z,76.40
2018-10-18T01:49:18.388Z,75.60
2018-10-18T01:49:52.158Z,75.30
2018-10-18T01:50:25.788Z,75.00
2018-10-18T01:50:59.428Z,74.40
2018-10-18T01:51:33.088Z,73.30
2018-10-18T01:52:06.783Z,72.30
2018-10-18T01:52:40.462Z,72.00
2018-10-18T01:53:14.114Z,70.70
2018-10-18T01:53:47.766Z,69.60
2018-10-18T01:54:21.414Z,69.60
2018-10-18T01:54:55.100Z,69.50
2018-10-18T01:55:28.724Z,69.10
2018-10-18T01:56:02.464Z,69.70
2018-10-18T01:56:36.054Z,70.10
2018-10-18T01:57:09.705Z,68.80
2018-10-18T01:57:43.342Z,69.40
2018-10-18T01:58:16.988Z,69.40
2018-10-18T01:58:50.608Z,68.90
2018-10-18T01:59:24.287Z,68.20
2018-10-18T01:59:57.958Z,69.00
2018-10-18T02:00:31.638Z,68.70
2018-10-18T02:01:05.336Z,68.40
2018-10-18T02:01:39.050Z,67.70
2018-10-18T02:02:12.690Z,68.50
2018-10-18T02:02:46.336Z,69.10
2018-10-18T02:03:19.996Z,68.90
2018-10-18T02:03:53.668Z,68.50
2018-10-18T02:04:27.310Z,68.40
2018-10-18T02:05:00.968Z,68.20
2018-10-18T02:05:34.612Z,67.30
2018-10-18T02:06:08.325Z,67.40
2018-10-18T02:06:41.930Z,67.20
2018-10-18T02:07:15.570Z,66.80
2018-10-18T02:07:49.213Z,66.90
2018-10-18T02:08:22.833Z,66.60
2018-10-18T02:08:56.500Z,66.40
2018-10-18T02:09:30.142Z,65.80
2018-10-18T02:13:11.745Z,64.20
2018-10-18T02:13:45.595Z,64.40
2018-10-18T02:14:19.173Z,64.20
2018-10-18T02:14:52.804Z,64.30
2018-10-18T02:15:26.454Z,64.20
2018-10-18T02:16:00.085Z,64.20
2018-10-18T02:16:33.854Z,62.60
2018-10-18T02:17:07.526Z,63.10
2018-10-18T02:17:41.178Z,63.20
2018-10-18T02:18:14.968Z,63.10
2018-10-18T02:18:48.498Z,63.30
2018-10-18T02:19:22.166Z,65.10
2018-10-18T02:19:55.799Z,65.30
2018-10-18T02:20:29.420Z,64.60
2018-10-18T02:21:03.088Z,64.40
2018-10-18T02:21:36.772Z,64.10
2018-10-18T02:22:10.424Z,64.20
2018-10-18T02:22:44.083Z,64.90
2018-10-18T02:23:17.788Z,64.90
2018-10-18T02:23:51.511Z,64.60
2018-10-18T02:24:25.140Z,64.20
2018-10-18T02:24:58.793Z,64.50
2018-10-18T02:25:32.423Z,64.10
2018-10-18T02:26:06.292Z,64.20
2018-10-18T02:26:40.000Z,64.40
2018-10-18T02:27:13.623Z,65.10
2018-10-18T02:27:47.295Z,65.50
2018-10-18T02:28:21.032Z,65.80
2018-10-18T02:28:54.707Z,65.60
2018-10-18T02:29:28.317Z,65.10
2018-10-18T02:30:02.198Z,64.90
2018-10-18T02:30:35.793Z,65.50
2018-10-18T02:31:09.463Z,65.10
2018-10-18T02:31:43.110Z,64.90
2018-10-18T02:32:16.760Z,65.30
2018-10-18T02:32:50.415Z,64.60
2018-10-18T02:33:24.065Z,64.30
2018-10-18T02:33:57.726Z,64.00
2018-10-18T02:34:31.376Z,63.90
2018-10-18T02:35:06.125Z,64.30
2018-10-18T02:35:39.824Z,63.70
2018-10-18T02:36:13.498Z,64.00
2018-10-18T02:36:47.136Z,63.90
2018-10-18T02:37:20.783Z,64.30
2018-10-18T02:37:54.454Z,64.00
2018-10-18T02:38:28.132Z,63.90
2018-10-18T02:39:01.825Z,63.30
2018-10-18T02:39:35.473Z,63.30
2018-10-18T02:40:09.131Z,63.90
2018-10-18T02:40:42.824Z,64.30
2018-10-18T02:41:16.490Z,65.20
2018-10-18T02:41:50.130Z,66.10
2018-10-18T02:42:23.758Z,66.10
2018-10-18T02:42:57.395Z,65.80
2018-10-18T02:43:31.066Z,66.10
2018-10-18T02:44:04.939Z,67.50
2018-10-18T02:44:38.571Z,67.50
2018-10-18T02:45:12.173Z,66.90
2018-10-18T02:45:45.841Z,66.70
2018-10-18T02:46:19.470Z,66.50
2018-10-18T02:46:53.088Z,66.40
2018-10-18T02:47:26.764Z,66.20
2018-10-18T02:48:00.462Z,66.50
2018-10-18T02:48:34.137Z,67.00
2018-10-18T02:49:07.781Z,66.70
2018-10-18T02:49:41.444Z,66.30
2018-10-18T02:50:15.228Z,66.70
2018-10-18T02:50:48.873Z,67.10
2018-10-18T02:51:22.561Z,67.10
2018-10-18T02:51:56.227Z,67.00
2018-10-18T02:52:29.868Z,66.50
2018-10-18T02:53:03.559Z,67.10
2018-10-18T02:53:37.209Z,67.50
2018-10-18T02:54:10.882Z,67.50
2018-10-18T02:54:44.720Z,67.10
2018-10-18T02:55:18.445Z,67.70
2018-10-18T02:55:52.101Z,67.70
2018-10-18T02:56:25.757Z,68.80
2018-10-18T02:56:59.383Z,69.00
2018-10-18T02:57:33.049Z,69.10
2018-10-18T02:58:06.677Z,68.90
2018-10-18T02:58:40.295Z,69.10
2018-10-18T02:59:13.977Z,69.60
2018-10-18T02:59:47.647Z,70.20
2018-10-18T03:00:21.334Z,70.10
2018-10-18T03:00:55.051Z,70.00
2018-10-18T03:01:28.723Z,69.70
2018-10-18T03:02:02.385Z,69.60
2018-10-18T03:02:36.106Z,69.50
2018-10-18T03:03:09.738Z,68.90
2018-10-18T03:03:43.435Z,69.00
2018-10-18T03:04:17.129Z,69.60
2018-10-18T03:07:25.135Z,71.80
2018-10-18T03:07:58.797Z,71.70
2018-10-18T03:08:32.460Z,71.60
2018-10-18T03:09:09.013Z,72.30
2018-10-18T03:09:42.669Z,72.80
2018-10-18T03:10:16.330Z,72.90
2018-10-18T03:10:50.001Z,73.80
2018-10-18T03:11:23.672Z,74.90
2018-10-18T03:11:57.373Z,75.60
2018-10-18T03:12:31.035Z,76.70
2018-10-18T03:13:04.840Z,77.60
2018-10-18T03:13:38.442Z,77.70
2018-10-18T03:14:12.076Z,77.70
2018-10-18T03:14:45.781Z,77.60
2018-10-18T03:15:19.459Z,77.60
2018-10-18T03:15:53.153Z,78.30
2018-10-18T03:16:26.770Z,79.30
2018-10-18T03:17:00.409Z,79.30
2018-10-18T03:17:34.060Z,79.60
2018-10-18T03:18:07.806Z,80.10
2018-10-18T03:18:41.431Z,80.40
2018-10-18T03:19:15.048Z,80.70
2018-10-18T03:19:48.742Z,80.40
2018-10-18T03:20:22.467Z,80.90
2018-10-18T03:20:56.132Z,81.00
2018-10-18T03:21:29.777Z,80.70
2018-10-18T03:22:03.456Z,80.50
2018-10-18T03:22:37.074Z,80.80
2018-10-18T03:23:10.747Z,80.30
2018-10-18T03:23:44.381Z,80.50
2018-10-18T03:24:18.119Z,80.70
2018-10-18T03:24:51.750Z,80.80
2018-10-18T03:25:25.416Z,81.20
2018-10-18T03:25:59.078Z,81.60
2018-10-18T03:26:32.699Z,80.80
2018-10-18T03:27:06.596Z,81.20
2018-10-18T03:27:40.260Z,81.40
2018-10-18T03:28:13.883Z,82.00
2018-10-18T03:28:47.523Z,81.50
2018-10-18T03:29:21.167Z,82.20
2018-10-18T03:29:54.885Z,82.20
2018-10-18T03:30:28.521Z,81.90
2018-10-18T03:31:02.195Z,81.50
2018-10-18T03:31:35.834Z,81.00
2018-10-18T03:32:09.452Z,81.70
2018-10-18T03:32:43.134Z,82.40
2018-10-18T03:33:16.764Z,82.80
2018-10-18T03:33:50.419Z,82.90
2018-10-18T03:34:24.086Z,82.30
2018-10-18T03:34:57.714Z,82.80
2018-10-18T03:35:31.346Z,82.60
2018-10-18T03:36:05.378Z,82.70
2018-10-18T03:36:38.973Z,82.40
2018-10-18T03:37:12.625Z,81.80
2018-10-18T03:37:46.356Z,82.00
2018-10-18T03:38:19.999Z,82.10
2018-10-18T03:38:53.804Z,81.80
2018-10-18T03:39:27.552Z,81.60
2018-10-18T03:40:01.184Z,81.70
2018-10-18T03:40:34.827Z,81.60
2018-10-18T03:41:08.449Z,81.50
2018-10-18T03:41:42.116Z,81.50
2018-10-18T03:42:15.864Z,81.40
2018-10-18T03:42:49.437Z,81.50
2018-10-18T03:43:23.065Z,81.10
2018-10-18T03:43:56.730Z,82.10
2018-10-18T03:44:30.345Z,82.80
2018-10-18T03:45:04.943Z,82.80
2018-10-18T03:45:38.675Z,83.50
2018-10-18T03:46:12.349Z,83.90
2018-10-18T03:46:46.020Z,84.10
2018-10-18T03:47:19.632Z,84.30
2018-10-18T03:47:53.385Z,84.40
2018-10-18T03:48:27.047Z,84.50
2018-10-18T03:49:01.235Z,84.80
2018-10-18T03:49:34.873Z,84.60
2018-10-18T03:50:08.718Z,84.00
2018-10-18T03:50:42.374Z,84.80
2018-10-18T03:51:16.024Z,86.00
2018-10-18T03:51:49.701Z,86.10
2018-10-18T03:52:23.356Z,86.00
2018-10-18T03:52:57.001Z,85.80
2018-10-18T03:53:30.674Z,85.60
2018-10-18T03:54:04.675Z,85.30
2018-10-18T03:54:38.282Z,85.30
2018-10-18T03:55:11.941Z,85.10
2018-10-18T03:55:45.574Z,85.10
2018-10-18T03:56:19.232Z,85.30
2018-10-18T03:56:52.876Z,85.80
2018-10-18T03:57:26.544Z,86.70
2018-10-18T03:58:00.188Z,87.30
2018-10-18T03:58:33.823Z,87.40
2018-10-18T03:59:07.862Z,87.70
2018-10-18T03:59:41.656Z,88.00
2018-10-18T04:00:15.348Z,88.10
2018-10-18T04:00:48.925Z,88.70
2018-10-18T04:01:22.647Z,89.00
2018-10-18T04:01:56.323Z,88.90
2018-10-18T04:02:29.983Z,89.00
2018-10-18T04:03:03.996Z,88.60
2018-10-18T04:03:37.640Z,88.50
2018-10-18T04:04:11.270Z,88.40
2018-10-18T04:04:45.060Z,88.10
2018-10-18T04:05:18.682Z,88.10
2018-10-18T04:05:52.345Z,87.80
2018-10-18T04:06:26.062Z,88.10
2018-10-18T04:06:59.716Z,88.10
2018-10-18T04:07:33.373Z,88.00
2018-10-18T04:08:07.266Z,88.10
2018-10-18T04:08:40.962Z,87.90
2018-10-18T04:09:14.635Z,88.50
2018-10-18T04:09:48.344Z,88.60
2018-10-18T04:10:21.970Z,88.80
2018-10-18T04:10:55.624Z,89.20
2018-10-18T04:11:29.293Z,89.10
2018-10-18T04:12:03.255Z,88.80
2018-10-18T04:12:36.851Z,88.80
2018-10-18T04:13:10.711Z,89.00
2018-10-18T04:13:44.350Z,88.70
2018-10-18T04:14:17.985Z,88.70
2018-10-18T04:14:51.640Z,88.60
2018-10-18T04:15:25.329Z,88.80
2018-10-18T04:15:59.048Z,88.70
2018-10-18T04:16:32.688Z,88.60
2018-10-18T04:17:06.396Z,88.50
2018-10-18T04:17:40.072Z,88.50
2018-10-18T04:18:13.742Z,88.60
2018-10-18T04:18:47.412Z,88.80
2018-10-18T04:19:21.068Z,89.00
2018-10-18T04:19:54.760Z,90.40
2018-10-18T04:20:28.422Z,90.70
2018-10-18T04:21:02.145Z,90.90
2018-10-18T04:21:35.818Z,90.80
2018-10-18T04:22:09.469Z,90.40
2018-10-18T04:22:43.160Z,90.60
2018-10-18T04:23:24.270Z,91.20
2018-10-18T04:23:57.923Z,91.10
2018-10-18T04:24:31.578Z,90.80
2018-10-18T04:25:06.216Z,91.20
2018-10-18T04:25:39.880Z,91.40
2018-10-18T04:26:13.496Z,91.50
2018-10-18T04:26:47.154Z,91.40
2018-10-18T04:27:20.850Z,91.20
2018-10-18T04:27:54.508Z,90.80
2018-10-18T04:28:28.446Z,90.70
2018-10-18T04:29:02.110Z,90.60
2018-10-18T04:29:35.741Z,90.50
2018-10-18T04:30:09.536Z,90.50
2018-10-18T04:30:43.200Z,90.60
2018-10-18T04:31:16.869Z,90.60
2018-10-18T04:31:50.536Z,90.70
2018-10-18T04:32:24.203Z,90.50
2018-10-18T04:32:57.820Z,90.40
2018-10-18T04:33:31.870Z,90.30
2018-10-18T04:34:05.632Z,90.50
2018-10-18T04:34:39.308Z,90.90
2018-10-18T04:35:12.996Z,91.30
2018-10-18T04:35:46.634Z,91.70
2018-10-18T04:36:20.443Z,92.00
2018-10-18T04:36:53.966Z,92.00
2018-10-18T04:37:27.822Z,92.20
2018-10-18T04:38:01.434Z,92.50
2018-10-18T04:38:35.059Z,92.80
2018-10-18T04:39:10.918Z,92.60
2018-10-18T04:39:44.567Z,92.70
2018-10-18T04:40:18.236Z,93.20
2018-10-18T04:40:51.923Z,93.30
2018-10-18T04:41:25.597Z,93.80
2018-10-18T04:41:59.317Z,94.30
2018-10-18T04:42:32.970Z,94.40
2018-10-18T04:43:06.604Z,94.40
2018-10-18T04:43:40.286Z,94.20
2018-10-18T04:44:13.944Z,95.00
2018-10-18T04:44:47.634Z,95.50
2018-10-18T04:45:21.395Z,96.30
2018-10-18T04:45:55.090Z,96.70
2018-10-18T04:46:28.723Z,97.30
2018-10-18T04:47:02.377Z,98.20
2018-10-18T04:47:36.129Z,98.60
2018-10-18T04:48:10.020Z,99.10
2018-10-18T04:48:43.702Z,99.30
2018-10-18T04:49:17.312Z,99.70
2018-10-18T04:49:50.934Z,99.90
2018-10-18T04:50:24.644Z,99.90
2018-10-18T04:50:58.273Z,99.90
2018-10-18T04:51:31.933Z,99.90
2018-10-18T04:52:06.036Z,99.90
2018-10-18T04:52:39.735Z,99.90
2018-10-18T04:53:13.402Z,99.90
2018-10-18T04:53:47.024Z,99.90
2018-10-18T04:54:20.676Z,99.90
2018-10-18T04:54:54.364Z,99.90
2018-10-18T04:55:28.029Z,99.90
2018-10-18T04:56:01.708Z,99.90
2018-10-18T04:56:35.358Z,99.90
2018-10-18T04:57:09.012Z,99.90
2018-10-18T04:57:42.731Z,99.90
2018-10-18T04:58:16.370Z,99.90
2018-10-18T04:58:50.023Z,99.90
2018-10-18T04:59:23.668Z,99.90
2018-10-18T04:59:57.310Z,99.90
2018-10-18T05:00:31.018Z,99.90
2018-10-18T05:01:04.972Z,99.90
2018-10-18T05:01:38.614Z,99.90
2018-10-18T05:02:12.320Z,99.90
2018-10-18T05:02:46.081Z,99.90
2018-10-18T05:03:19.729Z,99.90
2018-10-18T05:03:53.365Z,99.90
2018-10-18T05:04:27.041Z,99.90
2018-10-18T05:06:16.317Z,99.90
2018-10-18T05:06:50.061Z,99.90
2018-10-18T05:07:23.908Z,99.90
2018-10-18T05:07:57.560Z,99.90
2018-10-18T05:08:31.260Z,99.90
2018-10-18T05:09:07.202Z,99.90
2018-10-18T05:09:40.826Z,99.90
2018-10-18T05:10:14.466Z,99.90
2018-10-18T05:10:48.394Z,99.90
2018-10-18T05:11:22.049Z,99.90
2018-10-18T05:11:55.684Z,99.90
2018-10-18T05:12:29.395Z,99.90
2018-10-18T05:13:03.206Z,99.90
2018-10-18T05:13:36.814Z,99.90
2018-10-18T05:14:10.468Z,99.90
2018-10-18T05:14:44.120Z,99.90
2018-10-18T05:15:17.754Z,99.90
2018-10-18T05:15:51.413Z,99.90
2018-10-18T05:16:25.092Z,99.90
2018-10-18T05:16:58.773Z,99.90
2018-10-18T05:17:32.406Z,99.90
2018-10-18T05:18:06.503Z,99.90
2018-10-18T05:18:40.115Z,99.90
2018-10-18T05:19:13.805Z,99.90
2018-10-18T05:19:47.436Z,99.90
2018-10-18T05:20:21.068Z,99.90
2018-10-18T05:20:54.740Z,99.90
2018-10-18T05:21:28.408Z,99.90
2018-10-18T05:22:02.090Z,99.90
2018-10-18T05:22:35.722Z,99.90
2018-10-18T05:23:09.464Z,99.90
2018-10-18T05:23:43.147Z,99.90
2018-10-18T05:24:16.785Z,99.90
2018-10-18T05:24:50.435Z,99.90
2018-10-18T05:25:24.056Z,99.90
2018-10-18T05:25:57.724Z,99.90
2018-10-18T05:26:31.389Z,99.90
2018-10-18T05:27:05.436Z,99.90
2018-10-18T05:27:39.070Z,99.90
2018-10-18T05:28:12.736Z,99.90
2018-10-18T05:28:46.376Z,99.90
2018-10-18T05:29:20.077Z,99.90
2018-10-18T05:29:53.678Z,99.90
2018-10-18T05:30:27.402Z,99.90
2018-10-18T05:31:01.029Z,99.90
2018-10-18T05:31:34.743Z,99.90
2018-10-18T05:32:08.391Z,99.90
2018-10-18T05:32:42.040Z,99.90
2018-10-18T05:33:15.734Z,99.90
2018-10-18T05:33:49.426Z,99.90
2018-10-18T05:34:23.054Z,99.90
2018-10-18T05:34:56.732Z,99.90
2018-10-18T05:35:30.445Z,99.90
2018-10-18T05:36:04.157Z,99.90
2018-10-18T05:36:37.784Z,99.90
2018-10-18T05:37:11.561Z,99.90
2018-10-18T05:37:45.142Z,99.90
2018-10-18T05:38:18.776Z,99.90
2018-10-18T05:38:52.410Z,99.90
2018-10-18T05:39:26.124Z,99.90
2018-10-18T05:39:59.736Z,99.90
2018-10-18T05:40:33.388Z,99.90
2018-10-18T05:41:07.087Z,99.90
2018-10-18T05:41:40.741Z,99.90
2018-10-18T05:42:14.421Z,99.90
2018-10-18T05:42:48.426Z,99.90
2018-10-18T05:43:23.733Z,99.90
2018-10-18T05:43:57.416Z,99.90
2018-10-18T05:44:31.075Z,99.90
2018-10-18T05:45:06.079Z,99.90
2018-10-18T05:45:39.770Z,99.90
2018-10-18T05:46:13.461Z,99.90
2018-10-18T05:46:47.255Z,99.90
2018-10-18T05:47:20.892Z,99.90
2018-10-18T05:47:54.564Z,99.90
2018-10-18T05:48:28.195Z,99.90
2018-10-18T05:49:01.948Z,99.90
2018-10-18T05:49:35.517Z,99.90
2018-10-18T05:50:09.909Z,99.90
2018-10-18T05:50:43.533Z,99.90
2018-10-18T05:51:17.179Z,99.90
2018-10-18T05:51:50.949Z,99.90
2018-10-18T05:52:24.595Z,99.90
2018-10-18T05:52:58.255Z,99.90
2018-10-18T05:53:31.931Z,99.90
2018-10-18T05:54:05.874Z,99.90
2018-10-18T05:54:39.387Z,99.90
2018-10-18T05:55:13.237Z,99.90
2018-10-18T05:55:46.769Z,99.90
2018-10-18T05:56:20.445Z,99.90
2018-10-18T05:56:54.071Z,99.90
2018-10-18T05:57:27.689Z,99.90
2018-10-18T05:58:01.352Z,99.90
2018-10-18T05:58:34.960Z,99.90
2018-10-18T05:59:08.605Z,99.90
2018-10-18T05:59:42.277Z,99.90
2018-10-18T06:00:17.144Z,99.90
2018-10-18T06:00:50.763Z,99.90
2018-10-18T06:01:24.460Z,99.90
2018-10-18T06:01:58.109Z,99.90
2018-10-18T06:02:31.773Z,99.90
2018-10-18T06:03:05.681Z,99.90
2018-10-18T06:03:39.295Z,99.90
2018-10-18T06:04:12.942Z,99.90
2018-10-18T06:04:46.631Z,99.90
2018-10-18T06:05:20.287Z,99.90
2018-10-18T06:05:53.933Z,99.90
2018-10-18T06:06:27.621Z,99.90
2018-10-18T06:07:01.298Z,99.90
2018-10-18T06:07:35.213Z,99.90
2018-10-18T06:08:08.937Z,99.90
2018-10-18T06:08:42.605Z,99.90
2018-10-18T06:09:32.988Z,99.90
2018-10-18T06:10:28.612Z,99.90
2018-10-18T06:11:29.592Z,99.90
2018-10-18T06:12:03.581Z,99.90
2018-10-18T06:12:37.241Z,99.50
2018-10-18T06:13:10.907Z,99.20
2018-10-18T06:13:44.538Z,98.80
2018-10-18T06:14:18.184Z,98.10
2018-10-18T06:14:51.848Z,97.90
2018-10-18T06:15:25.552Z,97.90
2018-10-18T06:15:59.181Z,97.40
2018-10-18T06:16:32.895Z,97.80
2018-10-18T06:17:06.615Z,97.60
2018-10-18T06:17:40.682Z,97.50
2018-10-18T06:18:14.327Z,97.70
2018-10-18T06:18:48.035Z,97.40
2018-10-18T06:19:21.636Z,97.60
2018-10-18T06:19:55.285Z,97.80
2018-10-18T06:20:28.903Z,97.50
2018-10-18T06:21:02.599Z,96.80
2018-10-18T06:21:36.270Z,96.90
2018-10-18T06:22:09.943Z,96.80
2018-10-18T06:22:43.762Z,96.50
2018-10-18T06:23:17.445Z,96.40
2018-10-18T06:23:51.107Z,96.50
2018-10-18T06:24:24.751Z,96.30
2018-10-18T06:24:58.388Z,96.00
2018-10-18T06:25:32.035Z,96.10
2018-10-18T06:26:06.191Z,96.00
2018-10-18T06:26:39.844Z,96.40
2018-10-18T06:27:13.581Z,96.40
2018-10-18T06:27:47.238Z,96.20
2018-10-18T06:28:20.909Z,96.00
2018-10-18T06:28:54.664Z,96.00
2018-10-18T06:29:28.306Z,95.90
2018-10-18T06:30:01.980Z,95.80
2018-10-18T06:30:35.648Z,95.70
2018-10-18T06:31:09.273Z,95.10
2018-10-18T06:31:42.987Z,95.00
2018-10-18T06:32:16.606Z,95.50
2018-10-18T06:32:50.248Z,95.80
2018-10-18T06:33:23.864Z,95.60
2018-10-18T06:33:57.538Z,95.70
2018-10-18T06:34:31.196Z,95.40
2018-10-18T06:35:06.933Z,95.30
2018-10-18T06:35:40.548Z,95.20
2018-10-18T06:36:14.213Z,95.20
2018-10-18T06:36:47.848Z,95.20
2018-10-18T06:37:21.627Z,94.90
2018-10-18T06:37:55.167Z,95.10
2018-10-18T06:38:28.808Z,94.80
2018-10-18T06:39:04.261Z,94.60
2018-10-18T06:39:37.861Z,94.50
2018-10-18T06:40:13.646Z,94.80
2018-10-18T06:40:47.314Z,94.40
2018-10-18T06:41:20.992Z,94.10
2018-10-18T06:41:54.626Z,94.10
2018-10-18T06:42:28.277Z,93.90
2018-10-18T06:43:02.060Z,93.60
2018-10-18T06:43:36.436Z,93.20
2018-10-18T06:44:10.133Z,92.60
2018-10-18T06:44:43.793Z,92.10
2018-10-18T06:45:18.580Z,91.80
2018-10-18T06:45:52.198Z,91.50
2018-10-18T06:46:25.904Z,91.10
2018-10-18T06:46:59.605Z,90.00
2018-10-18T06:47:33.383Z,89.60
2018-10-18T06:48:07.000Z,89.70
2018-10-18T06:48:41.105Z,89.60
2018-10-18T06:49:14.828Z,89.60
2018-10-18T06:49:48.427Z,89.60
2018-10-18T06:50:22.079Z,89.30
2018-10-18T06:50:55.714Z,89.40
2018-10-18T06:51:29.422Z,89.20
2018-10-18T06:52:03.252Z,89.10
2018-10-18T06:52:37.133Z,88.90
2018-10-18T06:53:10.795Z,88.60
2018-10-18T06:53:44.463Z,88.20
2018-10-18T06:54:18.137Z,87.50
2018-10-18T06:54:51.757Z,86.90
2018-10-18T06:55:25.400Z,86.30
2018-10-18T06:55:59.471Z,86.10
2018-10-18T06:56:33.226Z,85.50
2018-10-18T06:57:07.477Z,85.00
2018-10-18T06:57:41.878Z,85.10
2018-10-18T06:58:15.494Z,84.90
2018-10-18T06:58:49.208Z,84.80
2018-10-18T06:59:22.909Z,84.70
2018-10-18T06:59:56.780Z,84.70
2018-10-18T07:00:30.401Z,84.30
2018-10-18T07:01:04.160Z,84.40
2018-10-18T07:01:37.836Z,84.30
2018-10-18T07:02:11.504Z,83.40
2018-10-18T07:02:45.395Z,82.40
2018-10-18T07:03:18.992Z,81.90
2018-10-18T07:03:52.636Z,81.80
2018-10-18T07:04:26.295Z,82.00
2018-10-18T07:04:59.942Z,82.30
2018-10-18T07:05:33.620Z,82.10
2018-10-18T07:06:07.338Z,81.70
2018-10-18T07:06:40.964Z,81.10
2018-10-18T07:07:14.596Z,80.90
2018-10-18T07:07:48.315Z,80.50
2018-10-18T07:08:21.947Z,80.30
2018-10-18T07:08:55.637Z,79.90
2018-10-18T07:09:29.345Z,79.30
2018-10-18T07:10:03.056Z,79.00
2018-10-18T07:10:36.728Z,78.40
2018-10-18T07:11:10.480Z,78.10
2018-10-18T07:11:44.043Z,77.20
2018-10-18T07:12:17.784Z,77.20
2018-10-18T07:12:51.358Z,77.10
2018-10-18T07:13:25.002Z,76.80
2018-10-18T07:13:58.651Z,76.10
2018-10-18T07:14:32.304Z,76.10
2018-10-18T07:15:07.678Z,75.60
2018-10-18T07:15:41.335Z,75.50
2018-10-18T07:16:15.088Z,75.40
2018-10-18T07:16:48.727Z,74.60
2018-10-18T07:17:22.372Z,74.20
2018-10-18T07:17:56.077Z,74.20
2018-10-18T07:18:29.697Z,74.40
2018-10-18T07:19:03.706Z,74.50
2018-10-18T07:19:37.394Z,74.50
2018-10-18T07:20:11.739Z,74.20
2018-10-18T07:20:45.422Z,73.80
2018-10-18T07:21:19.090Z,74.60
2018-10-18T07:21:52.806Z,75.30
2018-10-18T07:22:26.487Z,75.10